Time;durP1;ratioP1;P1;durP2;ratioP2;P2;SDS_P1;SDS_P2;PMS_P1;PMS_P2;Temp;Humidity;BMP_temperature;BMP_pressure;BME280_temperature;BME280_humidity;BME280_pressure;Samples;Min_cycle;Max_cycle;Signal;HPM_P1;HPM_P2
2024/03/06 00:00:35;;;;;;;65.70;11.70;;;;;;;;;;4992746;28;20802;-71
2024/03/06 00:03:03;;;;;;;65.57;11.67;;;;;;;;;;4997813;28;20455;-69
2024/03/06 00:05:30;;;;;;;65.10;11.03;;;;;;;;;;5003873;28;20541;-70
2024/03/06 00:07:57;;;;;;;64.67;11.33;;;;;;;;;;5012530;28;20465;-70
2024/03/06 00:10:24;;;;;;;66.23;11.47;;;;;;;;;;5012086;28;21091;-70
2024/03/06 00:12:51;;;;;;;68.77;12.10;;;;;;;;;;5000561;28;20461;-70
2024/03/06 00:15:20;;;;;;;66.70;11.47;;;;;;;;;;5000769;28;20825;-70
2024/03/06 00:17:47;;;;;;;67.30;11.67;;;;;;;;;;5011482;28;20528;-70
2024/03/06 00:20:14;;;;;;;64.20;10.57;;;;;;;;;;5005817;28;21180;-70
2024/03/06 00:22:41;;;;;;;64.67;10.87;;;;;;;;;;5000388;28;20534;-70
2024/03/06 00:25:09;;;;;;;65.30;11.53;;;;;;;;;;5000106;28;20453;-70
2024/03/06 00:27:36;;;;;;;66.07;11.70;;;;;;;;;;4992151;28;21046;-70
2024/03/06 00:30:03;;;;;;;64.17;11.23;;;;;;;;;;4992340;28;20488;-70
2024/03/06 00:32:32;;;;;;;74.50;11.57;;;;;;;;;;4992324;28;20448;-70
2024/03/06 00:34:59;;;;;;;66.77;12.10;;;;;;;;;;4992110;28;20452;-70
2024/03/06 00:37:26;;;;;;;68.83;10.93;;;;;;;;;;5000091;28;20483;-70
2024/03/06 00:39:53;;;;;;;67.67;12.57;;;;;;;;;;4987885;28;20444;-71
2024/03/06 00:42:20;;;;;;;64.60;12.17;;;;;;;;;;4996542;28;20447;-70
2024/03/06 00:44:47;;;;;;;64.97;11.50;;;;;;;;;;4991906;28;20974;-70
2024/03/06 00:47:14;;;;;;;66.80;11.47;;;;;;;;;;4992251;28;20468;-70
2024/03/06 00:49:43;;;;;;;66.80;12.13;;;;;;;;;;4999947;28;20857;-70
2024/03/06 00:52:10;;;;;;;69.13;11.77;;;;;;;;;;5005353;28;20493;-70
2024/03/06 00:54:37;;;;;;;65.90;11.67;;;;;;;;;;5010109;28;20509;-70
2024/03/06 00:57:04;;;;;;;66.27;12.07;;;;;;;;;;4992202;28;20476;-70
2024/03/06 00:59:31;;;;;;;69.77;12.20;;;;;;;;;;4992248;28;20443;-70
2024/03/06 01:01:59;;;;;;;67.80;12.27;;;;;;;;;;5004243;28;20457;-70
2024/03/06 01:04:26;;;;;;;64.30;10.80;;;;;;;;;;5011503;28;20456;-70
2024/03/06 01:06:54;;;;;;;68.27;11.67;;;;;;;;;;4991947;28;20477;-70
2024/03/06 01:09:22;;;;;;;65.57;10.97;;;;;;;;;;4991207;28;20505;-70
2024/03/06 01:11:50;;;;;;;67.50;11.70;;;;;;;;;;4999881;28;20495;-70
2024/03/06 01:14:17;;;;;;;69.90;12.77;;;;;;;;;;4998329;28;20456;-70
2024/03/06 01:16:44;;;;;;;66.53;12.03;;;;;;;;;;4995258;28;20991;-70
2024/03/06 01:19:11;;;;;;;65.00;10.80;;;;;;;;;;5003179;28;20610;-70
2024/03/06 01:21:39;;;;;;;68.73;12.10;;;;;;;;;;5003300;28;20450;-70
2024/03/06 01:24:08;;;;;;;67.00;13.03;;;;;;;;;;5011548;28;20450;-71
2024/03/06 01:26:35;;;;;;;65.87;11.53;;;;;;;;;;5011063;28;21011;-70
2024/03/06 01:29:02;;;;;;;65.37;12.33;;;;;;;;;;5006971;28;20455;-70
2024/03/06 01:31:29;;;;;;;66.40;12.00;;;;;;;;;;4991707;28;20454;-70
2024/03/06 01:33:56;;;;;;;66.20;12.17;;;;;;;;;;4992016;28;20455;-70
2024/03/06 01:36:23;;;;;;;66.97;12.57;;;;;;;;;;4991350;28;21017;-70
2024/03/06 01:38:50;;;;;;;65.00;11.97;;;;;;;;;;4992003;28;20470;-70
2024/03/06 01:41:19;;;;;;;64.10;11.00;;;;;;;;;;5006297;28;20457;-70
2024/03/06 01:43:46;;;;;;;63.17;10.50;;;;;;;;;;5011045;28;20952;-70
2024/03/06 01:46:14;;;;;;;68.50;11.50;;;;;;;;;;5010948;28;20671;-70
2024/03/06 01:48:42;;;;;;;70.50;11.70;;;;;;;;;;5011283;28;20822;-70
2024/03/06 01:51:09;;;;;;;63.57;10.97;;;;;;;;;;5011202;28;20487;-70
2024/03/06 01:53:37;;;;;;;64.97;11.00;;;;;;;;;;5011221;28;20478;-71
2024/03/06 01:56:05;;;;;;;64.40;11.33;;;;;;;;;;5010860;28;20554;-71
2024/03/06 01:58:34;;;;;;;66.27;11.90;;;;;;;;;;4994696;28;20459;-71
2024/03/06 02:01:02;;;;;;;65.63;11.70;;;;;;;;;;4991384;28;20793;-71
2024/03/06 02:03:29;;;;;;;65.57;11.40;;;;;;;;;;4991760;28;20537;-71
2024/03/06 02:05:58;;;;;;;66.13;11.37;;;;;;;;;;4994783;28;20981;-71
2024/03/06 02:08:25;;;;;;;66.40;11.13;;;;;;;;;;4995100;28;20459;-71
2024/03/06 02:10:52;;;;;;;66.30;12.40;;;;;;;;;;4993937;28;20622;-71
2024/03/06 02:13:19;;;;;;;66.20;11.70;;;;;;;;;;5002832;28;20452;-71
2024/03/06 02:15:47;;;;;;;70.33;11.87;;;;;;;;;;5004373;28;20545;-71
2024/03/06 02:18:14;;;;;;;64.60;12.00;;;;;;;;;;5014599;28;20457;-71
2024/03/06 02:20:43;;;;;;;66.83;12.23;;;;;;;;;;5014309;28;20817;-71
2024/03/06 02:23:10;;;;;;;68.10;11.50;;;;;;;;;;5014430;28;20448;-71
2024/03/06 02:25:37;;;;;;;67.93;11.20;;;;;;;;;;5013427;28;20451;-71
2024/03/06 02:28:06;;;;;;;66.40;11.33;;;;;;;;;;4994540;28;20468;-71
2024/03/06 02:30:36;;;;;;;66.70;12.13;;;;;;;;;;4994583;28;20492;-71
2024/03/06 02:33:03;;;;;;;63.97;10.70;;;;;;;;;;4987386;28;20463;-71
2024/03/06 02:35:30;;;;;;;71.70;11.60;;;;;;;;;;4994437;28;20448;-71
2024/03/06 02:37:59;;;;;;;77.10;11.70;;;;;;;;;;4994208;28;20839;-70
2024/03/06 02:40:27;;;;;;;65.10;11.80;;;;;;;;;;4994264;28;20447;-71
2024/03/06 02:42:54;;;;;;;68.53;12.10;;;;;;;;;;4997204;28;20451;-71
2024/03/06 02:45:21;;;;;;;65.73;12.00;;;;;;;;;;5013684;28;20450;-71
2024/03/06 02:47:48;;;;;;;67.30;12.37;;;;;;;;;;5003653;28;20562;-71
2024/03/06 02:50:15;;;;;;;65.03;11.23;;;;;;;;;;4993916;28;20487;-71
2024/03/06 02:52:42;;;;;;;65.50;12.33;;;;;;;;;;4994339;28;20454;-71
2024/03/06 02:55:11;;;;;;;64.37;11.20;;;;;;;;;;5001845;28;20457;-71
2024/03/06 02:57:38;;;;;;;70.23;13.30;;;;;;;;;;5010731;28;20472;-71
2024/03/06 03:00:09;;;;;;;65.63;12.13;;;;;;;;;;5013682;28;20458;-71
2024/03/06 03:02:36;;;;;;;67.83;10.23;;;;;;;;;;4996949;28;20452;-71
2024/03/06 03:05:03;;;;;;;68.17;11.40;;;;;;;;;;4993932;28;20454;-71
2024/03/06 03:07:30;;;;;;;64.83;11.27;;;;;;;;;;4994036;28;20469;-71
2024/03/06 03:09:57;;;;;;;65.90;11.90;;;;;;;;;;4993835;28;20498;-71
2024/03/06 03:12:25;;;;;;;64.57;10.80;;;;;;;;;;4993925;28;20459;-71
2024/03/06 03:14:52;;;;;;;64.87;11.27;;;;;;;;;;4993485;28;20453;-71
2024/03/06 03:17:20;;;;;;;69.57;11.43;;;;;;;;;;4992959;28;20483;-71
2024/03/06 03:19:47;;;;;;;63.13;10.77;;;;;;;;;;4993429;28;20455;-71
2024/03/06 03:22:14;;;;;;;63.57;10.63;;;;;;;;;;5006922;28;20460;-71
2024/03/06 03:24:43;;;;;;;62.77;9.90;;;;;;;;;;5013036;28;20447;-71
2024/03/06 03:27:10;;;;;;;64.17;10.37;;;;;;;;;;5012890;28;21042;-71
2024/03/06 03:29:39;;;;;;;63.37;10.20;;;;;;;;;;5012871;28;20450;-71
2024/03/06 03:32:06;;;;;;;63.00;10.37;;;;;;;;;;5012984;28;20872;-71
2024/03/06 03:34:34;;;;;;;64.10;11.00;;;;;;;;;;5012911;28;20458;-71
2024/03/06 03:37:02;;;;;;;65.70;11.93;;;;;;;;;;5012742;28;20553;-71
2024/03/06 03:39:29;;;;;;;67.70;11.30;;;;;;;;;;5012885;28;20538;-71
2024/03/06 03:41:56;;;;;;;65.70;10.90;;;;;;;;;;5012691;28;21172;-71
2024/03/06 03:44:23;;;;;;;67.80;11.07;;;;;;;;;;5012551;28;20452;-71
2024/03/06 03:46:52;;;;;;;64.37;10.77;;;;;;;;;;5012391;28;20482;-70
2024/03/06 03:49:19;;;;;;;63.20;9.77;;;;;;;;;;5012789;28;20451;-72
2024/03/06 03:51:46;;;;;;;61.90;10.20;;;;;;;;;;5012607;28;20495;-71
2024/03/06 03:54:13;;;;;;;64.30;10.10;;;;;;;;;;5012668;28;20466;-71
2024/03/06 03:56:41;;;;;;;64.40;9.70;;;;;;;;;;5012231;28;20476;-71
2024/03/06 03:59:08;;;;;;;63.97;10.20;;;;;;;;;;5012303;28;20472;-69
2024/03/06 04:01:35;;;;;;;65.67;11.37;;;;;;;;;;5012717;28;20457;-70
2024/03/06 04:04:04;;;;;;;64.30;11.33;;;;;;;;;;5012356;28;20446;-70
2024/03/06 04:06:31;;;;;;;63.17;10.13;;;;;;;;;;5009462;28;20472;-70
2024/03/06 04:08:58;;;;;;;63.73;9.93;;;;;;;;;;4990200;28;20844;-70
2024/03/06 04:11:25;;;;;;;65.10;8.90;;;;;;;;;;5000173;28;20494;-70
2024/03/06 04:13:52;;;;;;;63.10;9.83;;;;;;;;;;4992392;28;20452;-70
2024/03/06 04:16:19;;;;;;;62.13;9.27;;;;;;;;;;4992517;28;20468;-70
2024/03/06 04:18:46;;;;;;;62.50;9.70;;;;;;;;;;4992306;28;21009;-70
2024/03/06 04:21:15;;;;;;;61.10;8.10;;;;;;;;;;4992339;28;20837;-70
2024/03/06 04:23:42;;;;;;;61.77;8.63;;;;;;;;;;4992434;28;20455;-70
2024/03/06 04:26:09;;;;;;;62.43;9.10;;;;;;;;;;4992057;28;20842;-70
2024/03/06 04:28:37;;;;;;;61.90;9.73;;;;;;;;;;4999548;28;20469;-70
2024/03/06 04:31:04;;;;;;;62.10;8.50;;;;;;;;;;5003827;28;20491;-70
2024/03/06 04:33:31;;;;;;;62.27;8.50;;;;;;;;;;5012066;28;20454;-70
2024/03/06 04:35:58;;;;;;;62.67;9.33;;;;;;;;;;4999440;28;20449;-70
2024/03/06 04:38:27;;;;;;;62.30;9.03;;;;;;;;;;4997289;28;20459;-70
2024/03/06 04:40:54;;;;;;;62.40;9.13;;;;;;;;;;4991761;28;20450;-70
2024/03/06 04:43:21;;;;;;;63.20;8.80;;;;;;;;;;4992029;28;20464;-70
2024/03/06 04:45:48;;;;;;;61.40;8.60;;;;;;;;;;4991811;28;20448;-70
2024/03/06 04:48:15;;;;;;;61.13;7.90;;;;;;;;;;4992144;28;20470;-70
2024/03/06 04:50:42;;;;;;;62.63;8.97;;;;;;;;;;4991789;28;20490;-70
2024/03/06 04:53:10;;;;;;;61.57;9.23;;;;;;;;;;4991993;28;20977;-70
2024/03/06 04:55:39;;;;;;;65.23;9.20;;;;;;;;;;4991933;28;20551;-70
2024/03/06 04:58:06;;;;;;;63.67;9.50;;;;;;;;;;4984093;28;20478;-70
2024/03/06 05:00:33;;;;;;;62.30;8.30;;;;;;;;;;4991943;28;20481;-70
2024/03/06 05:03:00;;;;;;;64.00;8.70;;;;;;;;;;4991843;28;20459;-70
2024/03/06 05:05:29;;;;;;;63.00;9.30;;;;;;;;;;4991732;28;20452;-70
2024/03/06 05:07:56;;;;;;;61.47;8.73;;;;;;;;;;4991601;28;21000;-70
2024/03/06 05:10:23;;;;;;;61.63;8.20;;;;;;;;;;4991871;28;20501;-70
2024/03/06 05:12:52;;;;;;;62.40;9.23;;;;;;;;;;4992144;28;20510;-70
2024/03/06 05:15:19;;;;;;;66.03;9.80;;;;;;;;;;4991810;28;20450;-70
2024/03/06 05:17:47;;;;;;;63.60;9.53;;;;;;;;;;4991761;28;20471;-70
2024/03/06 05:20:15;;;;;;;62.17;7.90;;;;;;;;;;4991646;28;20529;-70
2024/03/06 05:22:42;;;;;;;62.27;9.10;;;;;;;;;;4991721;28;20451;-70
2024/03/06 05:25:09;;;;;;;62.17;9.50;;;;;;;;;;4991504;28;20452;-70
2024/03/06 05:27:37;;;;;;;63.07;8.90;;;;;;;;;;4991793;28;20884;-70
2024/03/06 05:30:06;;;;;;;62.00;9.70;;;;;;;;;;4991505;28;20444;-70
2024/03/06 05:32:33;;;;;;;65.50;8.73;;;;;;;;;;4991620;28;20449;-70
2024/03/06 05:35:00;;;;;;;59.97;8.07;;;;;;;;;;4991419;28;20452;-70
2024/03/06 05:37:28;;;;;;;60.13;7.83;;;;;;;;;;4989752;28;20479;-70
2024/03/06 05:39:55;;;;;;;62.93;8.97;;;;;;;;;;4990233;28;20465;-70
2024/03/06 05:42:22;;;;;;;61.30;8.53;;;;;;;;;;5006708;28;20456;-70
2024/03/06 05:44:50;;;;;;;63.10;9.23;;;;;;;;;;5006479;28;20448;-70
2024/03/06 05:47:19;;;;;;;62.40;9.30;;;;;;;;;;5014375;28;20477;-70
2024/03/06 05:49:47;;;;;;;62.27;9.63;;;;;;;;;;5001327;28;20467;-70
2024/03/06 05:52:14;;;;;;;64.97;11.30;;;;;;;;;;5003294;28;20597;-70
2024/03/06 05:54:42;;;;;;;63.40;10.50;;;;;;;;;;5011099;28;20459;-70
2024/03/06 05:57:09;;;;;;;64.10;9.87;;;;;;;;;;4987097;28;20475;-70
2024/03/06 05:59:37;;;;;;;65.00;10.00;;;;;;;;;;4994305;28;20463;-70
2024/03/06 06:02:05;;;;;;;62.70;9.20;;;;;;;;;;4999438;28;20862;-70
2024/03/06 06:04:33;;;;;;;64.17;9.57;;;;;;;;;;5001677;28;20447;-70
2024/03/06 06:07:00;;;;;;;65.10;11.03;;;;;;;;;;4992728;28;20571;-70
2024/03/06 06:09:27;;;;;;;63.10;10.07;;;;;;;;;;5002981;28;20452;-70
2024/03/06 06:11:54;;;;;;;62.67;10.03;;;;;;;;;;4994736;28;20524;-70
2024/03/06 06:14:21;;;;;;;62.87;9.20;;;;;;;;;;4994607;28;20454;-70
2024/03/06 06:16:49;;;;;;;62.83;9.83;;;;;;;;;;4994390;28;20780;-70
2024/03/06 06:19:16;;;;;;;64.20;10.30;;;;;;;;;;4994839;28;20942;-70
2024/03/06 06:21:46;;;;;;;62.80;10.13;;;;;;;;;;4994779;28;20726;-70
2024/03/06 06:24:13;;;;;;;65.23;9.83;;;;;;;;;;4987223;28;20915;-70
2024/03/06 06:26:40;;;;;;;63.10;10.10;;;;;;;;;;4994396;28;20467;-70
2024/03/06 06:29:08;;;;;;;63.17;11.37;;;;;;;;;;4994285;28;20449;-70
2024/03/06 06:31:35;;;;;;;67.33;10.43;;;;;;;;;;4994580;28;20488;-70
2024/03/06 06:34:02;;;;;;;62.60;9.67;;;;;;;;;;4994555;28;20831;-70
2024/03/06 06:36:29;;;;;;;64.40;10.90;;;;;;;;;;4994186;28;20479;-70
2024/03/06 06:38:58;;;;;;;61.50;8.57;;;;;;;;;;4993031;28;20455;-68
2024/03/06 06:41:25;;;;;;;65.70;11.80;;;;;;;;;;4994222;28;20443;-69
2024/03/06 06:43:52;;;;;;;66.90;12.83;;;;;;;;;;5003927;28;20448;-69
2024/03/06 06:46:21;;;;;;;65.47;12.87;;;;;;;;;;4993802;28;20475;-69
2024/03/06 06:48:49;;;;;;;65.20;12.57;;;;;;;;;;5010347;28;20455;-69
2024/03/06 06:51:16;;;;;;;67.67;12.43;;;;;;;;;;5001252;28;20885;-69
2024/03/06 06:53:43;;;;;;;65.37;12.40;;;;;;;;;;4994117;28;20537;-69
2024/03/06 06:56:12;;;;;;;63.30;11.30;;;;;;;;;;4993560;28;20473;-69
2024/03/06 06:58:42;;;;;;;63.90;10.60;;;;;;;;;;5002228;28;20457;-69
2024/03/06 07:01:09;;;;;;;62.67;9.17;;;;;;;;;;4993885;28;20560;-69
2024/03/06 07:03:36;;;;;;;63.00;9.27;;;;;;;;;;4994079;28;20925;-69
2024/03/06 07:06:04;;;;;;;63.00;8.77;;;;;;;;;;5001803;28;20822;-69
2024/03/06 07:08:31;;;;;;;63.57;8.73;;;;;;;;;;4999854;28;20489;-69
2024/03/06 07:10:58;;;;;;;62.23;7.73;;;;;;;;;;4998711;28;21013;-69
2024/03/06 07:13:27;;;;;;;61.67;7.13;;;;;;;;;;4999047;28;20452;-69
2024/03/06 07:15:54;;;;;;;61.17;7.93;;;;;;;;;;5004944;28;20464;-69
2024/03/06 07:18:21;;;;;;;62.80;7.17;;;;;;;;;;5013341;28;20456;-69
2024/03/06 07:20:48;;;;;;;65.30;8.17;;;;;;;;;;5011453;28;20479;-69
2024/03/06 07:23:15;;;;;;;64.27;8.07;;;;;;;;;;5001646;28;20827;-69
2024/03/06 07:25:42;;;;;;;60.90;6.40;;;;;;;;;;5007991;28;20463;-69
2024/03/06 07:28:10;;;;;;;60.17;7.20;;;;;;;;;;4992792;28;20445;-69
2024/03/06 07:30:38;;;;;;;59.80;6.80;;;;;;;;;;5001170;28;20450;-69
2024/03/06 07:33:06;;;;;;;59.80;6.83;;;;;;;;;;5010669;28;20500;-69
2024/03/06 07:35:36;;;;;;;59.60;6.40;;;;;;;;;;5009942;28;20468;-69
2024/03/06 07:38:04;;;;;;;61.70;6.97;;;;;;;;;;4994448;28;20490;-69
2024/03/06 07:40:31;;;;;;;69.30;6.80;;;;;;;;;;4993159;28;20460;-69
2024/03/06 07:42:59;;;;;;;59.97;6.50;;;;;;;;;;5002829;28;20444;-69
2024/03/06 07:45:26;;;;;;;60.27;6.70;;;;;;;;;;5012683;28;20746;-69
2024/03/06 07:47:55;;;;;;;61.70;6.90;;;;;;;;;;5012694;28;20473;-69
2024/03/06 07:50:22;;;;;;;59.80;6.27;;;;;;;;;;5005149;28;20464;-69
2024/03/06 07:52:50;;;;;;;59.47;6.20;;;;;;;;;;4993083;28;20516;-69
2024/03/06 07:55:18;;;;;;;59.40;6.53;;;;;;;;;;4992794;28;20542;-70
2024/03/06 07:57:46;;;;;;;60.00;6.63;;;;;;;;;;4992807;28;20566;-69
2024/03/06 08:00:15;;;;;;;61.17;6.20;;;;;;;;;;4992818;28;20472;-69
2024/03/06 08:02:43;;;;;;;59.73;6.47;;;;;;;;;;4992630;28;20457;-69
2024/03/06 08:05:13;;;;;;;61.37;5.80;;;;;;;;;;4992985;28;20455;-69
2024/03/06 08:07:41;;;;;;;61.67;7.20;;;;;;;;;;4992844;28;20485;-69
2024/03/06 08:10:13;;;;;;;61.10;6.10;;;;;;;;;;4992789;28;20842;-70
2024/03/06 08:12:40;;;;;;;61.57;6.20;;;;;;;;;;4992952;28;20486;-70
2024/03/06 08:15:09;;;;;;;60.40;6.70;;;;;;;;;;4994411;28;20540;-70
2024/03/06 08:17:36;;;;;;;61.20;7.23;;;;;;;;;;5012301;28;20827;-70
2024/03/06 08:20:07;;;;;;;61.40;6.67;;;;;;;;;;5012367;28;20448;-70
2024/03/06 08:22:38;;;;;;;61.33;6.47;;;;;;;;;;5012245;28;20452;-70
2024/03/06 08:25:05;;;;;;;59.33;6.50;;;;;;;;;;5011860;28;20661;-70
2024/03/06 08:27:33;;;;;;;62.00;7.37;;;;;;;;;;5011904;28;20467;-70
2024/03/06 08:30:00;;;;;;;60.80;7.67;;;;;;;;;;5011920;28;20510;-70
2024/03/06 08:32:27;;;;;;;59.37;6.70;;;;;;;;;;5012041;28;20493;-70
2024/03/06 08:34:54;;;;;;;59.57;6.93;;;;;;;;;;5011794;28;20455;-70
2024/03/06 08:37:21;;;;;;;63.03;8.07;;;;;;;;;;5011617;28;20486;-70
2024/03/06 08:39:50;;;;;;;59.90;7.53;;;;;;;;;;5011813;28;20817;-70
2024/03/06 08:42:18;;;;;;;62.20;8.43;;;;;;;;;;4984169;28;20456;-69
2024/03/06 08:44:45;;;;;;;62.07;7.90;;;;;;;;;;4992192;28;20464;-69
2024/03/06 08:47:13;;;;;;;65.40;10.10;;;;;;;;;;4992173;28;20484;-69
2024/03/06 08:49:41;;;;;;;63.03;8.63;;;;;;;;;;4992443;28;20524;-69
2024/03/06 08:52:09;;;;;;;62.00;8.73;;;;;;;;;;4992017;28;20491;-70
2024/03/06 08:54:36;;;;;;;64.27;7.97;;;;;;;;;;4992049;28;20453;-70
2024/03/06 08:57:05;;;;;;;63.37;8.80;;;;;;;;;;4991729;28;20468;-70
2024/03/06 08:59:33;;;;;;;62.17;8.10;;;;;;;;;;4992114;28;20452;-69
2024/03/06 09:02:00;;;;;;;63.10;10.30;;;;;;;;;;4992096;28;20456;-69
2024/03/06 09:04:27;;;;;;;63.97;9.20;;;;;;;;;;4992022;28;20456;-69
2024/03/06 09:06:55;;;;;;;64.27;10.00;;;;;;;;;;4991796;28;20476;-69
2024/03/06 09:09:22;;;;;;;63.43;10.27;;;;;;;;;;4991889;28;20452;-69
2024/03/06 09:11:49;;;;;;;66.77;11.37;;;;;;;;;;4991836;28;20500;-69
2024/03/06 09:14:18;;;;;;;64.73;10.67;;;;;;;;;;5004745;28;20447;-69
2024/03/06 09:16:45;;;;;;;63.70;10.40;;;;;;;;;;5015435;28;20505;-69
2024/03/06 09:19:12;;;;;;;63.27;10.27;;;;;;;;;;5015443;28;20452;-69
2024/03/06 09:21:39;;;;;;;66.63;10.70;;;;;;;;;;5015440;28;20447;-69
2024/03/06 09:24:06;;;;;;;62.60;9.87;;;;;;;;;;5015361;28;20448;-69
2024/03/06 09:26:34;;;;;;;64.57;11.17;;;;;;;;;;5015378;28;20478;-69
2024/03/06 09:29:01;;;;;;;66.27;10.00;;;;;;;;;;5015377;28;20454;-69
2024/03/06 09:31:30;;;;;;;64.00;11.07;;;;;;;;;;5015286;28;20451;-69
2024/03/06 09:33:57;;;;;;;64.43;10.37;;;;;;;;;;5015121;28;20458;-69
2024/03/06 09:36:25;;;;;;;70.70;12.00;;;;;;;;;;5014744;28;20833;-69
2024/03/06 09:38:52;;;;;;;66.10;11.27;;;;;;;;;;5015179;28;20455;-69
2024/03/06 09:41:19;;;;;;;65.70;10.73;;;;;;;;;;5012037;28;20452;-69
2024/03/06 09:43:47;;;;;;;65.10;10.40;;;;;;;;;;4994088;28;20942;-69
2024/03/06 09:46:14;;;;;;;64.30;10.80;;;;;;;;;;4993296;28;20551;-69
2024/03/06 09:48:45;;;;;;;67.00;9.90;;;;;;;;;;4995290;28;20824;-69
2024/03/06 09:51:13;;;;;;;64.10;10.27;;;;;;;;;;4995202;28;20456;-71
2024/03/06 09:53:41;;;;;;;64.60;11.20;;;;;;;;;;4995392;28;20497;-70
2024/03/06 09:56:09;;;;;;;65.10;12.00;;;;;;;;;;4994973;28;21020;-69
2024/03/06 09:58:36;;;;;;;65.07;10.50;;;;;;;;;;4995405;28;20471;-70
2024/03/06 10:01:06;;;;;;;64.10;10.07;;;;;;;;;;4995002;28;20457;-71
2024/03/06 10:03:34;;;;;;;63.20;10.40;;;;;;;;;;4994953;28;20454;-71
2024/03/06 10:06:02;;;;;;;65.20;10.47;;;;;;;;;;4994988;28;20459;-70
2024/03/06 10:08:29;;;;;;;65.37;11.40;;;;;;;;;;4995241;28;20452;-70
2024/03/06 10:10:57;;;;;;;63.77;10.67;;;;;;;;;;4994770;28;20448;-70
2024/03/06 10:13:25;;;;;;;65.77;10.20;;;;;;;;;;4994918;28;20492;-70
2024/03/06 10:15:59;;;;;;;67.57;11.03;;;;;;;;;;4994643;28;20538;-70
2024/03/06 10:18:28;;;;;;;67.33;11.10;;;;;;;;;;4995129;28;20452;-70
2024/03/06 10:20:55;;;;;;;65.50;11.00;;;;;;;;;;4994741;28;20946;-70
2024/03/06 10:23:24;;;;;;;63.73;10.87;;;;;;;;;;4994763;28;20449;-70
2024/03/06 10:25:52;;;;;;;64.30;10.43;;;;;;;;;;4992992;28;20452;-70
2024/03/06 10:28:20;;;;;;;69.17;11.87;;;;;;;;;;4994723;28;20484;-70
2024/03/06 10:30:47;;;;;;;67.30;11.57;;;;;;;;;;4994419;28;20823;-70
2024/03/06 10:33:15;;;;;;;65.80;11.50;;;;;;;;;;4994651;28;20491;-70
2024/03/06 10:35:43;;;;;;;66.30;12.13;;;;;;;;;;4994389;28;20800;-70
2024/03/06 10:38:10;;;;;;;65.87;11.90;;;;;;;;;;4994217;28;20958;-70
2024/03/06 10:40:39;;;;;;;64.00;10.93;;;;;;;;;;4994394;28;20459;-70
2024/03/06 10:43:07;;;;;;;68.70;12.77;;;;;;;;;;4994267;28;20823;-70
2024/03/06 10:45:42;;;;;;;67.73;13.40;;;;;;;;;;4994140;28;20951;-70
2024/03/06 10:48:11;;;;;;;70.20;12.50;;;;;;;;;;4994153;28;20941;-68
2024/03/06 10:50:38;;;;;;;67.93;13.47;;;;;;;;;;4994280;28;20495;-70
2024/03/06 10:53:06;;;;;;;69.40;12.67;;;;;;;;;;4994070;28;20488;-69
2024/03/06 10:55:34;;;;;;;66.30;13.67;;;;;;;;;;4993936;28;20457;-69
2024/03/06 10:58:03;;;;;;;71.87;13.83;;;;;;;;;;4994153;28;20481;-69
2024/03/06 11:00:30;;;;;;;67.70;13.70;;;;;;;;;;4998122;28;20480;-70
2024/03/06 11:02:58;;;;;;;69.10;14.60;;;;;;;;;;5013657;28;20448;-70
2024/03/06 11:05:25;;;;;;;68.17;13.93;;;;;;;;;;5013408;28;20828;-70
2024/03/06 11:07:52;;;;;;;71.80;13.93;;;;;;;;;;5013450;28;20463;-70
2024/03/06 11:10:31;;;;;;;70.10;14.43;;;;;;;;;;5013142;28;20478;-70
2024/03/06 11:12:58;;;;;;;68.20;14.27;;;;;;;;;;5013584;28;20495;-70
2024/03/06 11:15:27;;;;;;;68.67;14.57;;;;;;;;;;5013268;28;20460;-70
2024/03/06 11:17:54;;;;;;;68.33;14.33;;;;;;;;;;5013365;28;20470;-70
2024/03/06 11:20:25;;;;;;;68.30;14.43;;;;;;;;;;5013013;28;20535;-70
2024/03/06 11:23:09;;;;;;;70.27;14.97;;;;;;;;;;5013135;28;20851;-70
2024/03/06 11:25:55;;;;;;;72.73;15.60;;;;;;;;;;5012897;28;20979;-70
2024/03/06 11:28:23;;;;;;;68.67;14.00;;;;;;;;;;5012984;28;21035;-70
2024/03/06 11:30:57;;;;;;;71.10;15.13;;;;;;;;;;5013018;28;20459;-70
2024/03/06 11:33:24;;;;;;;74.83;16.37;;;;;;;;;;5013062;28;20589;-70
2024/03/06 11:36:06;;;;;;;72.70;16.53;;;;;;;;;;5013087;28;20455;-70
2024/03/06 11:38:33;;;;;;;71.97;15.80;;;;;;;;;;5012491;28;20959;-70
2024/03/06 11:41:00;;;;;;;74.63;15.67;;;;;;;;;;5012767;28;20442;-70
2024/03/06 11:43:27;;;;;;;75.07;16.40;;;;;;;;;;5012755;28;20439;-70
2024/03/06 11:46:09;;;;;;;76.97;15.57;;;;;;;;;;5012755;28;20451;-70
2024/03/06 11:48:36;;;;;;;70.10;16.07;;;;;;;;;;5008144;28;20457;-70
2024/03/06 11:51:04;;;;;;;71.50;16.43;;;;;;;;;;4993014;28;20450;-70
2024/03/06 11:53:34;;;;;;;71.83;16.03;;;;;;;;;;4992915;28;20488;-70
2024/03/06 11:56:01;;;;;;;70.27;15.07;;;;;;;;;;4992745;28;20460;-70
2024/03/06 11:58:28;;;;;;;72.07;16.23;;;;;;;;;;4993245;28;20829;-70
2024/03/06 12:00:56;;;;;;;69.57;15.37;;;;;;;;;;4993149;28;20453;-70
2024/03/06 12:03:25;;;;;;;71.20;17.57;;;;;;;;;;4992704;28;20449;-70
2024/03/06 12:05:52;;;;;;;70.20;14.93;;;;;;;;;;4992720;28;20464;-70
2024/03/06 12:08:20;;;;;;;69.17;14.63;;;;;;;;;;4992770;28;20870;-70
2024/03/06 12:10:48;;;;;;;70.77;15.73;;;;;;;;;;4992540;28;20950;-70
2024/03/06 12:13:15;;;;;;;70.83;16.23;;;;;;;;;;4992816;28;20493;-70
2024/03/06 12:15:45;;;;;;;70.30;16.07;;;;;;;;;;4992717;28;20458;-71
2024/03/06 12:18:13;;;;;;;71.10;16.23;;;;;;;;;;4993055;28;20492;-70
2024/03/06 12:20:45;;;;;;;71.90;16.57;;;;;;;;;;4992541;28;20460;-70
2024/03/06 12:23:21;;;;;;;72.03;16.83;;;;;;;;;;4992438;28;20453;-71
2024/03/06 12:25:49;;;;;;;70.40;15.80;;;;;;;;;;4992519;28;20452;-70
2024/03/06 12:28:17;;;;;;;75.40;18.00;;;;;;;;;;4992294;28;20964;-70
2024/03/06 12:30:46;;;;;;;72.83;16.53;;;;;;;;;;4992398;28;20560;-70
2024/03/06 12:33:18;;;;;;;78.27;18.77;;;;;;;;;;4992274;28;20544;-70
2024/03/06 12:35:45;;;;;;;73.43;17.33;;;;;;;;;;4991936;28;20464;-70
2024/03/06 12:38:15;;;;;;;73.40;18.30;;;;;;;;;;4992124;28;20456;-70
2024/03/06 12:40:42;;;;;;;78.37;18.77;;;;;;;;;;4992347;28;20462;-70
2024/03/06 12:43:09;;;;;;;79.67;19.00;;;;;;;;;;4992239;28;20449;-70
2024/03/06 12:45:37;;;;;;;77.70;19.50;;;;;;;;;;4992121;28;20456;-70
2024/03/06 12:48:05;;;;;;;78.53;19.90;;;;;;;;;;4991471;28;20473;-70
2024/03/06 12:50:34;;;;;;;76.87;19.90;;;;;;;;;;4991716;28;20457;-70
2024/03/06 12:53:04;;;;;;;78.47;20.17;;;;;;;;;;4992210;28;20492;-69
2024/03/06 12:55:31;;;;;;;70.90;16.93;;;;;;;;;;4992020;28;20467;-69
2024/03/06 12:57:58;;;;;;;72.63;18.03;;;;;;;;;;4992079;28;20549;-69
2024/03/06 13:00:25;;;;;;;73.37;18.23;;;;;;;;;;4992275;28;20448;-69
2024/03/06 13:02:52;;;;;;;73.30;17.33;;;;;;;;;;4991889;28;20799;-70
2024/03/06 13:05:20;;;;;;;76.70;18.23;;;;;;;;;;4991849;28;20444;-70
2024/03/06 13:07:48;;;;;;;73.37;17.93;;;;;;;;;;4992077;28;20472;-70
2024/03/06 13:10:16;;;;;;;75.30;18.07;;;;;;;;;;4991859;28;20453;-70
2024/03/06 13:12:43;;;;;;;75.27;16.27;;;;;;;;;;4991825;28;20464;-70
2024/03/06 13:15:10;;;;;;;74.23;18.37;;;;;;;;;;4991535;28;20830;-70
2024/03/06 13:17:39;;;;;;;73.37;17.70;;;;;;;;;;4991786;28;20932;-70
2024/03/06 13:20:09;;;;;;;75.27;18.33;;;;;;;;;;4991852;28;20453;-70
2024/03/06 13:22:36;;;;;;;75.67;18.10;;;;;;;;;;4991836;28;20937;-70
2024/03/06 13:25:04;;;;;;;78.40;18.23;;;;;;;;;;4991734;28;20543;-70
2024/03/06 13:27:31;;;;;;;74.10;16.60;;;;;;;;;;4991787;28;20475;-70
2024/03/06 13:29:59;;;;;;;75.47;17.87;;;;;;;;;;4991647;28;21041;-70
2024/03/06 13:32:26;;;;;;;77.77;17.37;;;;;;;;;;4991806;28;20460;-70
2024/03/06 13:34:53;;;;;;;74.67;18.30;;;;;;;;;;4991512;28;20864;-70
2024/03/06 13:37:22;;;;;;;77.20;19.00;;;;;;;;;;4991579;28;20482;-70
2024/03/06 13:39:49;;;;;;;77.33;18.57;;;;;;;;;;4991667;28;20475;-70
2024/03/06 13:42:18;;;;;;;74.73;18.23;;;;;;;;;;4991553;28;20463;-70
2024/03/06 13:44:45;;;;;;;76.93;20.00;;;;;;;;;;4991701;28;20467;-70
2024/03/06 13:47:17;;;;;;;80.50;22.53;;;;;;;;;;4991692;28;20504;-70
2024/03/06 13:49:44;;;;;;;79.07;21.33;;;;;;;;;;4991688;28;20462;-70
2024/03/06 13:52:13;;;;;;;79.30;21.67;;;;;;;;;;4991489;28;20458;-70
2024/03/06 13:54:40;;;;;;;80.63;21.70;;;;;;;;;;4991395;28;21050;-70
2024/03/06 13:57:08;;;;;;;77.87;21.53;;;;;;;;;;4991821;28;20488;-70
2024/03/06 13:59:37;;;;;;;76.00;20.23;;;;;;;;;;4991770;28;20456;-70
2024/03/06 14:02:05;;;;;;;77.07;20.90;;;;;;;;;;4995355;28;20460;-70
2024/03/06 14:04:32;;;;;;;78.77;21.27;;;;;;;;;;4994955;28;20495;-70
2024/03/06 14:06:59;;;;;;;79.03;21.90;;;;;;;;;;4994873;28;20566;-70
2024/03/06 14:09:26;;;;;;;80.77;21.90;;;;;;;;;;5005489;28;20450;-70
2024/03/06 14:11:54;;;;;;;80.33;19.60;;;;;;;;;;5014815;28;20446;-70
2024/03/06 14:14:21;;;;;;;78.53;21.90;;;;;;;;;;5014516;28;20845;-70
2024/03/06 14:16:50;;;;;;;79.90;21.97;;;;;;;;;;5014383;28;20566;-70
2024/03/06 14:19:17;;;;;;;80.43;20.37;;;;;;;;;;5014400;28;20826;-70
2024/03/06 14:21:44;;;;;;;82.50;22.43;;;;;;;;;;5014318;28;20454;-70
2024/03/06 14:24:11;;;;;;;80.87;20.63;;;;;;;;;;5014261;28;20447;-70